Time;durP1;ratioP1;P1;durP2;ratioP2;P2;SDS_P1;SDS_P2;PMS_P1;PMS_P2;Temp;Humidity;BMP_temperature;BMP_pressure;BME280_temperature;BME280_humidity;BME280_pressure;Samples;Min_cycle;Max_cycle;Signal;HPM_P1;HPM_P2
2021/12/06 00:04:31;;;;;;;9.65;3.22;;;4.70;99.90;;;;;;20825454;28;20500;-42
2021/12/06 00:14:38;;;;;;;10.20;3.67;;;4.70;99.90;;;;;;20823916;28;20179;-42
2021/12/06 00:24:39;;;;;;;18.05;4.95;;;4.60;99.90;;;;;;20817013;28;20040;-42
2021/12/06 00:34:41;;;;;;;12.18;3.17;;;4.50;99.90;;;;;;20819005;28;20049;-42
2021/12/06 00:44:43;;;;;;;11.07;3.70;;;4.30;99.90;;;;;;20824162;28;20068;-42
2021/12/06 00:54:44;;;;;;;12.05;3.40;;;4.30;99.90;;;;;;20820785;28;20417;-42
2021/12/06 01:04:47;;;;;;;10.65;4.70;;;4.30;99.90;;;;;;20816108;28;20416;-42
2021/12/06 01:14:49;;;;;;;13.32;3.53;;;4.40;99.90;;;;;;20823301;28;20041;-42
2021/12/06 01:25:01;;;;;;;10.07;3.90;;;4.50;99.90;;;;;;20813582;28;20067;-42
2021/12/06 01:45:07;;;;;;;15.65;6.05;;;4.60;99.90;;;;;;20814135;28;20037;-42
2021/12/06 01:55:12;;;;;;;10.20;4.28;;;4.60;99.90;;;;;;20808001;28;20047;-42
2021/12/06 02:05:13;;;;;;;16.00;4.97;;;4.70;99.90;;;;;;20799819;28;20041;-42
2021/12/06 02:25:48;;;;;;;17.17;5.32;;;4.70;99.90;;;;;;20775269;28;20096;-42
2021/12/06 02:35:51;;;;;;;16.52;5.85;;;4.80;99.90;;;;;;20804050;28;20045;-42
2021/12/06 02:45:52;;;;;;;11.43;5.25;;;4.80;99.90;;;;;;20798086;28;20044;-42
2021/12/06 02:55:58;;;;;;;15.02;5.88;;;4.80;99.90;;;;;;20797627;28;20037;-42
2021/12/06 03:05:59;;;;;;;15.65;5.60;;;4.80;99.90;;;;;;20798476;28;20033;-42
2021/12/06 03:16:00;;;;;;;17.15;4.95;;;4.80;99.90;;;;;;20805296;28;20038;-42
2021/12/06 03:26:03;;;;;;;13.15;5.47;;;4.90;99.90;;;;;;20793473;28;20040;-42
2021/12/06 03:36:06;;;;;;;17.60;4.35;;;4.80;99.90;;;;;;20792001;28;20037;-42
2021/12/06 03:46:09;;;;;;;9.88;4.50;;;4.90;99.90;;;;;;20797828;28;20049;-42
2021/12/06 03:56:10;;;;;;;19.58;6.20;;;4.90;99.90;;;;;;20795332;28;20405;-42
2021/12/06 04:06:12;;;;;;;12.80;5.10;;;4.90;99.90;;;;;;20793665;28;20048;-42
2021/12/06 04:16:13;;;;;;;11.65;5.43;;;4.80;99.90;;;;;;20792974;28;20412;-42
2021/12/06 04:26:15;;;;;;;14.93;4.57;;;4.70;99.90;;;;;;20802235;28;20064;-42
2021/12/06 04:36:16;;;;;;;14.95;7.30;;;4.60;99.90;;;;;;20808390;28;20041;-42
2021/12/06 04:46:17;;;;;;;14.73;4.68;;;4.60;99.90;;;;;;20801598;28;20037;-42
2021/12/06 04:56:28;;;;;;;16.23;4.53;;;4.50;99.90;;;;;;20806427;28;20103;-42
2021/12/06 05:06:33;;;;;;;14.10;5.03;;;4.30;99.90;;;;;;20805875;28;20040;-42
2021/12/06 05:16:36;;;;;;;16.20;4.63;;;4.30;99.90;;;;;;20814532;28;20040;-42
2021/12/06 05:26:37;;;;;;;13.25;3.70;;;4.40;99.90;;;;;;20809034;28;20053;-42
2021/12/06 05:36:38;;;;;;;9.30;4.13;;;4.40;99.90;;;;;;20808998;28;20057;-42
2021/12/06 05:46:40;;;;;;;12.77;4.35;;;4.40;99.90;;;;;;20816035;28;20483;-42
2021/12/06 05:56:41;;;;;;;18.02;5.15;;;4.30;99.90;;;;;;20814182;28;20052;-42
2021/12/06 06:06:42;;;;;;;12.43;4.00;;;4.40;99.90;;;;;;20809051;28;20515;-42
2021/12/06 06:16:48;;;;;;;16.98;6.68;;;4.40;99.90;;;;;;20807878;28;20037;-42
2021/12/06 06:26:49;;;;;;;13.70;4.03;;;4.30;99.90;;;;;;20810044;28;20037;-42
2021/12/06 06:36:51;;;;;;;23.92;5.20;;;4.30;99.90;;;;;;20808179;28;20053;-42
2021/12/06 06:46:52;;;;;;;13.20;5.07;;;4.20;99.90;;;;;;20808658;28;20052;-42
2021/12/06 06:56:53;;;;;;;19.92;5.03;;;4.30;99.90;;;;;;20808866;28;20041;-42
2021/12/06 07:06:55;;;;;;;13.05;5.30;;;4.30;99.90;;;;;;20808465;28;20167;-42
2021/12/06 07:16:57;;;;;;;16.75;4.45;;;4.00;99.90;;;;;;20813279;28;20052;-42
2021/12/06 07:26:58;;;;;;;20.13;5.65;;;4.10;99.90;;;;;;20808790;28;20056;-42
2021/12/06 07:36:59;;;;;;;17.75;5.28;;;4.10;99.90;;;;;;20807205;28;20041;-42
2021/12/06 07:47:03;;;;;;;19.95;6.18;;;4.20;99.90;;;;;;20809298;28;20091;-42
2021/12/06 07:57:06;;;;;;;18.17;7.65;;;4.20;99.90;;;;;;20812505;28;21288;-42
2021/12/06 08:07:07;;;;;;;19.50;5.57;;;4.10;99.90;;;;;;20828997;28;20044;-41
2021/12/06 08:17:08;;;;;;;28.48;5.07;;;4.00;99.90;;;;;;20814579;28;20041;-41
2021/12/06 08:27:09;;;;;;;15.13;4.72;;;4.10;99.90;;;;;;20821697;28;20040;-41
2021/12/06 08:37:11;;;;;;;21.52;6.45;;;4.20;99.90;;;;;;20815503;28;20041;-41
2021/12/06 08:47:15;;;;;;;16.50;6.35;;;4.10;99.90;;;;;;20816853;28;20401;-41
2021/12/06 08:57:16;;;;;;;25.27;6.78;;;4.00;99.90;;;;;;20808854;28;20045;-41
2021/12/06 09:07:19;;;;;;;22.70;6.82;;;4.00;99.90;;;;;;20814035;28;20041;-41
2021/12/06 09:17:21;;;;;;;18.60;6.75;;;4.00;99.90;;;;;;20815995;28;20033;-41
2021/12/06 09:27:23;;;;;;;17.67;6.40;;;4.00;99.90;;;;;;20828242;28;20057;-41
2021/12/06 09:37:24;;;;;;;25.75;7.72;;;4.10;99.90;;;;;;20829165;28;20037;-41
2021/12/06 09:47:28;;;;;;;21.48;8.10;;;4.00;99.90;;;;;;20824567;28;20040;-41
2021/12/06 09:57:29;;;;;;;26.67;8.35;;;3.90;99.90;;;;;;20831377;28;20033;-41
2021/12/06 10:07:31;;;;;;;32.00;9.00;;;3.90;99.90;;;;;;20830539;28;20484;-41
2021/12/06 10:17:34;;;;;;;27.52;8.80;;;3.90;99.90;;;;;;20827000;28;20041;-42
2021/12/06 10:27:35;;;;;;;26.98;8.88;;;3.90;99.90;;;;;;20825780;28;20036;-41
2021/12/06 10:37:36;;;;;;;34.38;9.40;;;4.10;99.90;;;;;;20823479;28;20049;-41
2021/12/06 10:47:39;;;;;;;21.45;7.03;;;4.10;99.90;;;;;;20825376;28;20044;-41
2021/12/06 10:57:52;;;;;;;26.77;7.22;;;4.30;99.90;;;;;;20781426;28;20516;-41
2021/12/06 11:08:15;;;;;;;22.02;6.45;;;4.20;99.90;;;;;;20782525;28;20458;-42
2021/12/06 11:18:39;;;;;;;23.40;7.30;;;4.30;99.90;;;;;;20816232;28;20664;-41
2021/12/06 11:28:42;;;;;;;18.92;5.97;;;4.30;99.90;;;;;;20834288;28;20052;-41
2021/12/06 11:38:48;;;;;;;16.52;6.05;;;4.40;99.90;;;;;;20833739;28;20082;-41
2021/12/06 11:48:50;;;;;;;17.40;5.70;;;4.40;99.90;;;;;;20821479;28;20040;-42
2021/12/06 11:58:54;;;;;;;18.05;6.10;;;4.50;99.90;;;;;;20753794;28;20627;-42
2021/12/06 12:09:01;;;;;;;19.83;5.35;;;4.80;99.90;;;;;;20824853;28;20044;-41
2021/12/06 12:19:02;;;;;;;;;;;4.70;99.90;;;;;;20818636;28;20041;-41
2021/12/06 12:29:12;;;;;;;22.30;5.80;;;4.50;99.90;;;;;;20825551;28;19924;-42
2021/12/06 12:39:19;;;;;;;18.70;5.05;;;4.60;99.90;;;;;;20815831;28;20484;-42
2021/12/06 12:49:30;;;;;;;18.65;6.25;;;4.50;99.90;;;;;;20835706;28;20040;-41
2021/12/06 12:59:45;;;;;;;12.95;4.10;;;4.50;99.90;;;;;;20823706;28;20044;-42
2021/12/06 13:09:46;;;;;;;19.95;4.97;;;4.40;99.90;;;;;;20822161;28;21544;-41
2021/12/06 13:20:05;;;;;;;15.38;5.82;;;4.40;99.90;;;;;;20826097;28;20039;-43
2021/12/06 13:30:12;;;;;;;17.00;4.07;;;4.30;99.90;;;;;;20834494;28;20036;-41
2021/12/06 13:40:19;;;;;;;12.30;3.40;;;4.10;99.90;;;;;;20838337;28;20053;-42
2021/12/06 13:50:26;;;;;;;;;;;4.20;99.90;;;;;;20840275;28;20045;-41
2021/12/06 14:00:30;;;;;;;12.90;3.22;;;4.10;99.90;;;;;;20827984;28;19916;-41
2021/12/06 14:10:36;;;;;;;9.63;3.83;;;4.00;99.90;;;;;;20803291;28;20597;-42
2021/12/06 14:20:48;;;;;;;11.07;3.40;;;4.00;99.90;;;;;;20821235;28;20044;-41
2021/12/06 14:30:51;;;;;;;11.93;3.58;;;3.80;99.90;;;;;;20811050;28;20033;-42
2021/12/06 14:40:55;;;;;;;12.43;3.22;;;3.80;99.90;;;;;;20781663;28;20060;-41
2021/12/06 15:01:06;;;;;;;13.40;3.70;;;3.70;99.90;;;;;;20815614;28;20048;-42
2021/12/06 15:11:14;;;;;;;14.20;4.10;;;3.70;99.90;;;;;;20776209;28;20049;-42
2021/12/06 15:21:26;;;;;;;21.75;6.05;;;3.60;99.90;;;;;;20808395;28;20113;-44
2021/12/06 15:31:29;;;;;;;19.83;4.55;;;3.60;99.90;;;;;;20819888;28;20061;-41
2021/12/06 15:41:34;;;;;;;15.65;4.78;;;3.50;99.90;;;;;;20814443;28;20393;-41
2021/12/06 15:51:43;;;;;;;10.63;3.20;;;3.50;99.90;;;;;;20798547;28;20041;-42
2021/12/06 16:01:54;;;;;;;12.25;4.03;;;3.60;99.90;;;;;;20814108;28;20040;-41
2021/12/06 16:12:09;;;;;;;9.95;3.90;;;3.60;99.90;;;;;;20814288;28;20040;-42
2021/12/06 16:22:13;;;;;;;13.23;3.80;;;3.70;99.90;;;;;;20826333;28;20064;-43
2021/12/06 16:32:15;;;;;;;14.23;3.65;;;3.90;99.90;;;;;;20823151;28;20045;-41
2021/12/06 16:42:38;;;;;;;8.98;3.55;;;3.90;99.90;;;;;;20824002;28;20041;-41
2021/12/06 16:52:48;;;;;;;9.82;3.60;;;4.00;99.90;;;;;;20830767;28;20037;-41
2021/12/06 17:03:08;;;;;;;8.55;3.40;;;4.10;99.90;;;;;;20829894;28;20446;-41
2021/12/06 17:13:15;;;;;;;11.10;4.22;;;4.10;99.90;;;;;;20818163;28;20072;-42
2021/12/06 17:23:22;;;;;;;;;;;4.20;99.90;;;;;;20832117;28;20029;-42
2021/12/06 17:33:38;;;;;;;9.73;2.78;;;4.30;99.90;;;;;;20833171;28;19925;-42
2021/12/06 17:43:40;;;;;;;7.00;1.95;;;4.20;99.90;;;;;;20831604;28;20505;-42
2021/12/06 17:53:41;;;;;;;6.07;2.03;;;4.20;99.90;;;;;;20833244;28;20059;-41
2021/12/06 18:03:42;;;;;;;6.45;2.03;;;4.00;99.90;;;;;;20839394;28;20045;-41
2021/12/06 18:13:45;;;;;;;7.20;2.00;;;3.90;99.90;;;;;;20835618;28;20049;-42
2021/12/06 18:23:46;;;;;;;6.95;2.10;;;3.80;99.90;;;;;;20777717;28;20456;-42
2021/12/06 18:33:47;;;;;;;6.32;2.42;;;3.60;99.90;;;;;;20813482;28;20053;-41
2021/12/06 18:44:11;;;;;;;5.95;2.50;;;3.70;99.90;;;;;;20812728;28;20502;-42
2021/12/06 18:54:10;;;;;;;7.68;1.92;;;3.60;99.90;;;;;;20817856;28;20037;-42
2021/12/06 19:04:12;;;;;;;6.07;2.38;;;3.60;99.90;;;;;;20810781;28;20032;-42
2021/12/06 19:14:14;;;;;;;6.93;2.42;;;3.40;99.90;;;;;;20817049;28;20037;-43
2021/12/06 19:24:15;;;;;;;7.68;2.88;;;3.50;99.90;;;;;;20811294;28;20049;-42
2021/12/06 19:34:17;;;;;;;5.28;1.70;;;3.40;99.90;;;;;;20806378;28;20052;-42
2021/12/06 19:44:19;;;;;;;6.85;2.15;;;3.20;99.90;;;;;;20803492;28;20029;-42
2021/12/06 19:54:20;;;;;;;3.85;1.77;;;3.20;99.90;;;;;;20812717;28;20041;-42
2021/12/06 20:04:22;;;;;;;5.50;1.67;;;3.20;99.90;;;;;;20800911;28;20086;-42
2021/12/06 20:14:23;;;;;;;8.57;2.40;;;3.10;99.90;;;;;;20822438;28;20533;-42
2021/12/06 20:24:26;;;;;;;6.30;2.28;;;2.90;99.90;;;;;;20820261;28;20048;-42
2021/12/06 20:34:28;;;;;;;5.22;2.08;;;2.80;99.90;;;;;;20822629;28;20500;-42
2021/12/06 20:44:29;;;;;;;3.78;1.33;;;2.70;99.90;;;;;;20817109;28;20639;-42
2021/12/06 20:54:31;;;;;;;3.47;1.02;;;2.70;99.90;;;;;;20809164;28;20067;-42
2021/12/06 21:04:32;;;;;;;3.47;1.40;;;2.70;99.90;;;;;;20816765;28;20044;-42
2021/12/06 21:14:40;;;;;;;5.18;1.38;;;2.60;99.90;;;;;;20822993;28;20048;-42
2021/12/06 21:24:43;;;;;;;5.20;1.05;;;2.50;99.90;;;;;;20820435;28;20038;-42
2021/12/06 21:34:45;;;;;;;2.72;1.00;;;2.40;99.90;;;;;;20816326;28;20049;-42
2021/12/06 21:44:48;;;;;;;4.05;1.77;;;2.30;99.90;;;;;;20804051;28;20041;-42
2021/12/06 21:54:52;;;;;;;4.72;1.60;;;2.30;99.90;;;;;;20813574;28;20037;-42
2021/12/06 22:04:54;;;;;;;3.08;1.48;;;2.30;99.90;;;;;;20801411;28;20044;-41
2021/12/06 22:14:55;;;;;;;3.95;2.28;;;2.40;99.90;;;;;;20813148;28;20068;-42
2021/12/06 22:24:56;;;;;;;4.95;1.73;;;2.30;99.90;;;;;;20800289;28;20524;-42
2021/12/06 22:34:59;;;;;;;4.35;1.65;;;2.10;99.90;;;;;;20813094;28;20045;-42
2021/12/06 22:45:00;;;;;;;7.43;3.25;;;2.00;99.90;;;;;;20821503;28;20037;-42
2021/12/06 22:55:04;;;;;;;5.95;2.60;;;2.10;99.90;;;;;;20811613;28;20053;-42
2021/12/06 23:05:05;;;;;;;5.28;1.23;;;2.00;99.90;;;;;;20802096;28;20040;-42
2021/12/06 23:15:08;;;;;;;5.45;1.98;;;1.80;99.90;;;;;;20823035;28;20040;-42
2021/12/06 23:25:11;;;;;;;5.60;2.50;;;1.60;99.90;;;;;;20819950;28;20045;-43
2021/12/06 23:35:16;;;;;;;4.97;1.70;;;1.60;99.90;;;;;;20821872;28;20044;-43
2021/12/06 23:55:37;;;;;;;6.20;2.35;;;1.80;99.90;;;;;;20818025;28;20052;-43
